createdAt,value
2022-11-07T00:00:08.375Z,7.22
2022-11-07T00:02:34.877Z,8.10
2022-11-07T00:05:02.321Z,10.73
2022-11-07T00:07:28.852Z,9.50
2022-11-07T00:09:55.325Z,6.93
2022-11-07T00:12:21.785Z,7.32
2022-11-07T00:14:48.277Z,8.30
2022-11-07T00:17:15.411Z,7.03
2022-11-07T00:19:41.913Z,6.40
2022-11-07T00:22:08.377Z,8.00
2022-11-07T00:24:34.872Z,7.72
2022-11-07T00:27:01.438Z,6.60
2022-11-07T00:29:27.951Z,5.22
2022-11-07T00:31:54.595Z,6.55
2022-11-07T00:34:21.056Z,6.10
2022-11-07T00:36:47.516Z,6.07
2022-11-07T00:39:13.997Z,7.55
2022-11-07T00:41:40.502Z,7.63
2022-11-07T00:44:07.002Z,6.28
2022-11-07T00:46:33.570Z,5.85
2022-11-07T00:49:00.051Z,3.85
2022-11-07T00:51:27.295Z,5.53
2022-11-07T00:53:53.830Z,3.83
2022-11-07T00:56:22.548Z,4.38
2022-11-07T00:58:49.043Z,5.70
2022-11-07T01:01:17.258Z,4.47
2022-11-07T01:04:02.461Z,3.80
2022-11-07T01:06:29.730Z,4.55
2022-11-07T01:08:56.636Z,3.67
2022-11-07T01:11:23.895Z,5.60
2022-11-07T01:13:50.414Z,5.30
2022-11-07T01:16:16.853Z,4.05
2022-11-07T01:18:43.337Z,4.25
2022-11-07T01:21:15.119Z,3.63
2022-11-07T01:23:42.895Z,3.25
2022-11-07T01:26:10.006Z,5.53
2022-11-07T01:28:36.617Z,3.67
2022-11-07T01:31:03.933Z,3.22
2022-11-07T01:33:30.515Z,3.60
2022-11-07T01:36:06.236Z,3.50
2022-11-07T01:38:32.947Z,3.42
2022-11-07T01:41:18.005Z,4.38
2022-11-07T01:44:00.521Z,3.22
2022-11-07T01:46:30.828Z,4.03
2022-11-07T01:49:28.651Z,4.13
2022-11-07T01:52:02.914Z,3.20
2022-11-07T01:54:39.031Z,3.30
2022-11-07T01:57:09.347Z,2.85
2022-11-07T01:59:35.824Z,3.53
2022-11-07T02:02:02.424Z,2.33
2022-11-07T02:04:29.617Z,4.13
2022-11-07T02:07:01.003Z,3.10
2022-11-07T02:09:27.690Z,3.58
2022-11-07T02:11:54.162Z,3.55
2022-11-07T02:14:20.697Z,3.13
2022-11-07T02:16:47.153Z,3.20
2022-11-07T02:19:30.227Z,4.18
2022-11-07T02:22:22.070Z,3.03
2022-11-07T02:24:50.872Z,2.42
2022-11-07T02:27:18.553Z,2.38
2022-11-07T02:29:46.512Z,2.17
2022-11-07T02:32:13.039Z,3.55
2022-11-07T02:34:39.510Z,3.10
2022-11-07T02:37:09.882Z,2.08
2022-11-07T02:39:36.342Z,3.63
2022-11-07T02:42:02.816Z,2.83
2022-11-07T02:44:29.517Z,1.98
2022-11-07T02:46:56.111Z,1.88
2022-11-07T02:49:22.588Z,2.75
2022-11-07T02:51:49.057Z,2.33
2022-11-07T02:54:15.517Z,2.03
2022-11-07T02:56:41.971Z,2.28
2022-11-07T02:59:08.449Z,1.70
2022-11-07T03:01:35.084Z,3.03
2022-11-07T03:04:01.966Z,2.15
2022-11-07T03:06:28.472Z,3.00
2022-11-07T03:08:54.945Z,2.15
2022-11-07T03:11:21.435Z,2.50
2022-11-07T03:13:48.120Z,1.95
2022-11-07T03:16:15.107Z,1.98
2022-11-07T03:18:41.575Z,2.20
2022-11-07T03:21:08.107Z,1.80
2022-11-07T03:23:35.065Z,1.98
2022-11-07T03:26:01.934Z,3.15
2022-11-07T03:28:28.399Z,2.03
2022-11-07T03:30:54.906Z,2.38
2022-11-07T03:33:21.404Z,1.73
2022-11-07T03:35:47.885Z,3.03
2022-11-07T03:38:14.355Z,11.35
2022-11-07T03:40:40.827Z,17.73
2022-11-07T03:43:07.312Z,29.45
2022-11-07T03:45:33.792Z,19.08
2022-11-07T03:48:00.276Z,16.92
2022-11-07T03:50:27.167Z,19.55
2022-11-07T03:52:53.689Z,20.98
2022-11-07T03:55:20.199Z,17.92
2022-11-07T03:57:46.806Z,20.42
2022-11-07T04:00:13.689Z,19.48
2022-11-07T04:02:40.516Z,20.38
2022-11-07T04:05:07.519Z,21.75
2022-11-07T04:07:34.183Z,18.90
2022-11-07T04:10:00.650Z,18.52
2022-11-07T04:12:45.659Z,19.15
2022-11-07T04:15:30.691Z,17.77
2022-11-07T04:17:57.175Z,11.30
2022-11-07T04:20:23.653Z,17.92
2022-11-07T04:22:50.116Z,12.35
2022-11-07T04:25:16.584Z,19.63
2022-11-07T04:27:43.061Z,13.55
2022-11-07T04:30:19.632Z,12.25
2022-11-07T04:32:46.889Z,14.40
2022-11-07T04:35:13.583Z,14.05
2022-11-07T04:37:40.448Z,12.82
2022-11-07T04:40:07.841Z,15.60
2022-11-07T04:42:34.297Z,12.82
2022-11-07T04:45:00.790Z,14.13
2022-11-07T04:47:27.290Z,13.35
2022-11-07T04:49:53.784Z,11.88
2022-11-07T04:52:20.242Z,10.80
2022-11-07T04:54:46.734Z,13.43
2022-11-07T04:57:13.273Z,11.10
2022-11-07T04:59:39.740Z,10.85
2022-11-07T05:02:06.370Z,10.88
2022-11-07T05:04:32.973Z,11.35
2022-11-07T05:06:59.437Z,9.60
2022-11-07T05:09:27.329Z,8.27
2022-11-07T05:11:54.104Z,12.02
2022-11-07T05:14:20.589Z,10.38
2022-11-07T05:16:47.042Z,10.45
2022-11-07T05:19:17.183Z,6.18
2022-11-07T05:21:45.439Z,9.55
2022-11-07T05:24:13.500Z,7.95
2022-11-07T05:26:40.094Z,8.98
2022-11-07T05:29:08.036Z,8.52
2022-11-07T05:31:34.518Z,6.38
2022-11-07T05:34:00.980Z,9.57
2022-11-07T05:36:27.449Z,8.55
2022-11-07T05:38:53.932Z,9.63
2022-11-07T05:41:21.100Z,7.75
2022-11-07T05:43:47.781Z,6.38
2022-11-07T05:46:14.618Z,7.68
2022-11-07T05:48:41.148Z,8.18
2022-11-07T05:51:07.745Z,7.10
2022-11-07T05:53:34.455Z,4.97
2022-11-07T05:56:01.046Z,6.47
2022-11-07T05:58:27.535Z,4.82
2022-11-07T06:00:54.068Z,6.15
2022-11-07T06:03:20.861Z,7.13
2022-11-07T06:05:47.674Z,5.95
2022-11-07T06:08:14.205Z,6.47
2022-11-07T06:10:41.398Z,6.60
2022-11-07T06:13:10.221Z,6.38
2022-11-07T06:15:36.893Z,6.43
2022-11-07T06:18:04.305Z,5.25
2022-11-07T06:20:30.786Z,6.18
2022-11-07T06:23:01.091Z,5.40
2022-11-07T06:25:28.239Z,6.18
2022-11-07T06:28:16.928Z,7.03
2022-11-07T06:30:43.461Z,4.97
2022-11-07T06:33:19.066Z,6.75
2022-11-07T06:35:45.971Z,8.93
2022-11-07T06:38:13.213Z,5.43
2022-11-07T06:40:40.655Z,6.07
2022-11-07T06:43:17.877Z,6.03
2022-11-07T06:45:44.908Z,4.88
2022-11-07T06:48:11.708Z,5.78
2022-11-07T06:50:38.374Z,6.38
2022-11-07T06:53:06.225Z,6.07
2022-11-07T06:55:34.208Z,5.35
2022-11-07T06:58:00.930Z,4.75
2022-11-07T07:00:33.836Z,3.80
2022-11-07T07:03:00.357Z,5.07
2022-11-07T07:05:26.966Z,3.28
2022-11-07T07:07:57.019Z,6.85
2022-11-07T07:10:25.311Z,3.85
2022-11-07T07:12:52.997Z,4.38
2022-11-07T07:15:19.557Z,6.78
2022-11-07T07:17:46.022Z,4.45
2022-11-07T07:20:12.491Z,4.20
2022-11-07T07:22:39.194Z,5.32
2022-11-07T07:25:06.217Z,4.28
2022-11-07T07:27:32.691Z,3.30
2022-11-07T07:29:59.167Z,5.28
2022-11-07T07:32:25.686Z,6.75
2022-11-07T07:34:52.319Z,4.80
2022-11-07T07:37:18.844Z,6.30
2022-11-07T07:39:45.337Z,5.65
2022-11-07T07:42:11.785Z,5.63
2022-11-07T07:44:39.318Z,3.90
2022-11-07T07:47:10.853Z,3.72
2022-11-07T07:49:37.725Z,4.10
2022-11-07T07:52:04.343Z,3.53
2022-11-07T07:54:30.818Z,3.00
2022-11-07T07:56:57.298Z,2.80
2022-11-07T07:59:23.784Z,4.10
2022-11-07T08:01:56.282Z,4.00
2022-11-07T08:04:23.477Z,3.03
2022-11-07T08:06:49.932Z,4.25
2022-11-07T08:09:16.381Z,4.43
2022-11-07T08:11:42.854Z,2.47
2022-11-07T08:14:11.453Z,2.55
2022-11-07T08:16:37.946Z,4.28
2022-11-07T08:19:04.410Z,4.38
2022-11-07T08:21:30.880Z,3.28
2022-11-07T08:23:57.349Z,5.30
2022-11-07T08:26:23.814Z,2.58
2022-11-07T08:28:50.301Z,3.95
2022-11-07T08:31:16.824Z,2.33
2022-11-07T08:33:43.317Z,2.55
2022-11-07T08:36:10.067Z,2.17
2022-11-07T08:38:36.808Z,2.60
2022-11-07T08:41:03.772Z,2.85
2022-11-07T08:43:30.251Z,2.65
2022-11-07T08:45:56.746Z,3.30
2022-11-07T08:48:23.338Z,4.25
2022-11-07T08:50:54.378Z,2.15
2022-11-07T08:53:21.432Z,2.45
2022-11-07T08:55:48.024Z,1.80
2022-11-07T08:58:15.117Z,2.28
2022-11-07T09:00:41.730Z,3.15
2022-11-07T09:03:24.360Z,2.45
2022-11-07T09:05:56.465Z,2.05
2022-11-07T09:08:22.969Z,2.88
2022-11-07T09:10:49.532Z,2.25
2022-11-07T09:13:17.531Z,2.47
2022-11-07T09:15:49.499Z,2.88
2022-11-07T09:18:17.318Z,1.65
2022-11-07T09:20:43.781Z,2.28
2022-11-07T09:23:10.431Z,3.20
2022-11-07T09:25:36.923Z,1.02
2022-11-07T09:28:03.850Z,3.22
2022-11-07T09:30:30.321Z,3.58
2022-11-07T09:32:57.044Z,1.80
2022-11-07T09:35:23.603Z,5.63
2022-11-07T09:37:50.508Z,2.10
2022-11-07T09:40:19.871Z,2.63
2022-11-07T09:43:05.683Z,2.20
2022-11-07T09:45:32.155Z,1.83
2022-11-07T09:48:00.284Z,2.50
2022-11-07T09:50:31.825Z,2.33
2022-11-07T09:53:04.186Z,1.85
2022-11-07T09:55:35.693Z,2.13
2022-11-07T09:58:03.875Z,1.35
2022-11-07T10:00:31.058Z,1.13
2022-11-07T10:02:58.182Z,1.50
2022-11-07T10:05:24.516Z,2.25
2022-11-07T10:08:22.206Z,0.82
2022-11-07T10:11:03.952Z,1.63
2022-11-07T10:13:46.156Z,1.08
2022-11-07T10:16:18.449Z,3.10
2022-11-07T10:18:59.523Z,1.50
2022-11-07T10:21:42.266Z,1.30
2022-11-07T10:24:37.242Z,1.77
2022-11-07T10:27:03.803Z,0.73
2022-11-07T10:29:47.785Z,1.30
2022-11-07T10:32:34.357Z,1.48
2022-11-07T10:35:26.114Z,1.73
2022-11-07T10:37:57.165Z,0.95
2022-11-07T10:40:23.650Z,1.00
2022-11-07T10:42:50.146Z,1.67
2022-11-07T10:45:17.396Z,0.98
2022-11-07T10:47:54.596Z,1.38
2022-11-07T10:50:22.257Z,0.65
2022-11-07T10:52:55.745Z,1.55
2022-11-07T10:55:22.403Z,1.00
2022-11-07T10:57:52.845Z,1.55
2022-11-07T11:00:37.061Z,1.75
2022-11-07T11:03:03.575Z,2.25
2022-11-07T11:05:40.997Z,1.08
2022-11-07T11:08:18.718Z,1.25
2022-11-07T11:10:45.561Z,1.38
2022-11-07T11:13:31.623Z,1.98
2022-11-07T11:16:05.692Z,1.75
2022-11-07T11:18:32.432Z,1.05
2022-11-07T11:21:03.182Z,1.20
2022-11-07T11:23:30.941Z,1.55
2022-11-07T11:26:09.656Z,0.93
2022-11-07T11:28:39.524Z,1.75
2022-11-07T11:31:08.105Z,0.93
2022-11-07T11:33:54.675Z,0.70
2022-11-07T11:36:26.250Z,1.63
2022-11-07T11:38:55.685Z,1.45
2022-11-07T11:41:35.944Z,1.05
2022-11-07T11:44:18.692Z,1.60
2022-11-07T11:47:14.277Z,2.40
2022-11-07T11:49:47.868Z,1.92
2022-11-07T11:52:19.657Z,0.65
2022-11-07T11:54:46.868Z,1.33
2022-11-07T11:57:21.280Z,1.75
2022-11-07T12:00:14.815Z,1.30
2022-11-07T12:02:54.958Z,1.15
2022-11-07T12:05:47.771Z,1.67
2022-11-07T12:08:17.628Z,1.58
2022-11-07T12:10:44.916Z,1.65
2022-11-07T12:13:19.120Z,1.27
2022-11-07T12:15:52.525Z,1.65
2022-11-07T12:18:24.440Z,2.63
2022-11-07T12:21:12.235Z,1.33
2022-11-07T12:24:02.911Z,3.03
2022-11-07T12:26:33.802Z,3.33
2022-11-07T12:29:15.445Z,1.42
2022-11-07T12:32:00.229Z,1.77
2022-11-07T12:34:41.065Z,1.40
2022-11-07T12:37:42.864Z,1.50
2022-11-07T12:40:21.645Z,5.90
2022-11-07T12:43:09.830Z,1.67
2022-11-07T12:45:59.731Z,2.28
2022-11-07T12:49:04.038Z,1.17
2022-11-07T12:51:58.385Z,1.60
2022-11-07T12:54:33.782Z,1.55
2022-11-07T12:57:02.407Z,1.70
2022-11-07T12:59:29.933Z,1.75
2022-11-07T13:02:22.627Z,1.92
2022-11-07T13:04:55.944Z,1.75
2022-11-07T13:07:27.374Z,1.30
2022-11-07T13:10:16.863Z,1.33
2022-11-07T13:13:23.606Z,0.85
2022-11-07T13:16:14.103Z,0.90
2022-11-07T13:18:36.700Z,1.02
2022-11-07T13:21:05.653Z,0.70
2022-11-07T13:23:32.219Z,2.58
2022-11-07T13:26:10.685Z,2.47
2022-11-07T13:29:00.071Z,1.77
2022-11-07T13:31:39.357Z,1.98
2022-11-07T13:34:50.792Z,1.55
2022-11-07T13:37:20.142Z,1.13
2022-11-07T13:39:47.147Z,1.23
2022-11-07T13:42:17.348Z,1.48
2022-11-07T13:44:43.819Z,1.17
2022-11-07T13:47:15.292Z,2.35
2022-11-07T13:49:45.008Z,0.70
2022-11-07T13:52:22.539Z,0.63
2022-11-07T13:55:04.150Z,4.55
2022-11-07T13:57:34.479Z,6.15
2022-11-07T14:00:10.918Z,5.63
2022-11-07T14:02:37.532Z,2.60
2022-11-07T14:05:21.558Z,2.55
2022-11-07T14:07:49.681Z,3.55
2022-11-07T14:10:24.293Z,3.33
2022-11-07T14:12:59.079Z,2.92
2022-11-07T14:15:25.563Z,3.80
2022-11-07T14:17:52.042Z,0.90
2022-11-07T14:20:19.680Z,1.90
2022-11-07T14:22:50.655Z,4.60
2022-11-07T14:25:26.545Z,3.97
2022-11-07T14:27:53.073Z,5.32
2022-11-07T14:30:20.217Z,3.00
2022-11-07T14:32:51.634Z,5.15
2022-11-07T14:35:20.071Z,4.53
2022-11-07T14:37:46.793Z,3.50
2022-11-07T14:40:13.269Z,4.80
2022-11-07T14:42:39.808Z,2.83
2022-11-07T14:45:06.940Z,2.80
2022-11-07T14:47:33.559Z,2.38
2022-11-07T14:50:01.601Z,1.35
2022-11-07T14:52:38.833Z,4.40
2022-11-07T14:55:20.827Z,2.65
2022-11-07T14:57:47.339Z,3.40
2022-11-07T15:00:15.550Z,5.15
2022-11-07T15:02:42.185Z,3.45
2022-11-07T15:05:24.965Z,3.85
2022-11-07T15:07:51.592Z,4.15
2022-11-07T15:10:25.577Z,4.22
2022-11-07T15:13:02.962Z,3.40
2022-11-07T15:15:33.656Z,3.97
2022-11-07T15:18:04.652Z,4.13
2022-11-07T15:20:31.046Z,2.80
2022-11-07T15:22:59.516Z,2.30
2022-11-07T15:25:38.062Z,2.33
2022-11-07T15:28:30.081Z,1.15
2022-11-07T15:30:59.881Z,2.40
2022-11-07T15:33:29.374Z,2.95
2022-11-07T15:35:57.063Z,1.98
2022-11-07T15:38:25.456Z,2.35
2022-11-07T15:40:51.978Z,3.38
2022-11-07T15:43:18.669Z,1.15
2022-11-07T15:45:45.486Z,3.97
2022-11-07T15:48:17.700Z,1.73
2022-11-07T15:50:45.285Z,1.75
2022-11-07T15:53:22.981Z,3.58
2022-11-07T15:55:53.926Z,1.15
2022-11-07T15:58:24.606Z,2.22
2022-11-07T16:00:51.816Z,1.75
2022-11-07T16:03:19.985Z,2.30
2022-11-07T16:05:47.421Z,1.60
2022-11-07T16:08:15.675Z,1.77
2022-11-07T16:10:44.988Z,2.08
2022-11-07T16:13:11.498Z,1.50
2022-11-07T16:15:37.971Z,2.00
2022-11-07T16:18:04.664Z,2.50
2022-11-07T16:20:33.490Z,2.13
2022-11-07T16:23:00.603Z,2.20
2022-11-07T16:25:27.156Z,3.05
2022-11-07T16:27:56.176Z,1.85
2022-11-07T16:30:22.992Z,2.85
2022-11-07T16:32:49.464Z,3.78
2022-11-07T16:35:16.053Z,3.15
2022-11-07T16:37:42.524Z,1.40
2022-11-07T16:40:15.145Z,2.10
2022-11-07T16:42:41.843Z,2.50
2022-11-07T16:45:08.707Z,5.07
2022-11-07T16:47:37.091Z,8.63
2022-11-07T16:50:04.063Z,14.10
2022-11-07T16:52:30.587Z,12.80
2022-11-07T16:54:57.042Z,15.02
2022-11-07T16:57:23.759Z,11.77
2022-11-07T16:59:52.295Z,13.50
2022-11-07T17:02:21.700Z,15.27
2022-11-07T17:04:49.359Z,13.70
2022-11-07T17:07:15.976Z,18.73
2022-11-07T17:09:42.615Z,19.30
2022-11-07T17:12:12.547Z,21.48
2022-11-07T17:14:39.101Z,16.80
2022-11-07T17:17:05.618Z,21.50
2022-11-07T17:19:32.399Z,19.80
2022-11-07T17:22:00.024Z,18.95
2022-11-07T17:24:26.520Z,19.08
2022-11-07T17:26:53.097Z,19.77
2022-11-07T17:29:19.562Z,21.88
2022-11-07T17:31:49.032Z,21.88
2022-11-07T17:34:15.512Z,20.58
2022-11-07T17:36:46.194Z,21.92
2022-11-07T17:39:20.027Z,21.75
2022-11-07T17:41:47.757Z,19.75
2022-11-07T17:44:14.284Z,16.40
2022-11-07T17:46:44.879Z,20.63
2022-11-07T17:49:13.269Z,18.13
2022-11-07T17:51:41.684Z,16.00
2022-11-07T17:54:09.855Z,19.08
2022-11-07T17:56:36.392Z,16.83
2022-11-07T17:59:05.101Z,13.27
2022-11-07T18:01:33.336Z,19.33
2022-11-07T18:03:59.996Z,14.63
2022-11-07T18:06:26.619Z,12.68
2022-11-07T18:08:54.920Z,15.40
2022-11-07T18:11:23.002Z,11.82
2022-11-07T18:13:49.968Z,12.80
2022-11-07T18:16:19.629Z,12.32
2022-11-07T18:18:46.160Z,10.68
2022-11-07T18:21:12.697Z,11.20
2022-11-07T18:23:40.374Z,10.13
2022-11-07T18:26:11.617Z,14.65
2022-11-07T18:28:39.002Z,10.32
2022-11-07T18:31:07.086Z,12.05
2022-11-07T18:33:33.876Z,10.20
2022-11-07T18:36:01.351Z,9.52
2022-11-07T18:38:27.903Z,9.77
2022-11-07T18:41:05.751Z,9.88
2022-11-07T18:43:32.448Z,10.18
2022-11-07T18:45:59.210Z,8.85
2022-11-07T18:48:25.833Z,10.93
2022-11-07T18:50:52.355Z,9.40
2022-11-07T18:53:18.847Z,10.77
2022-11-07T18:55:45.307Z,9.48
2022-11-07T18:58:11.806Z,10.23
2022-11-07T19:00:38.388Z,9.98
2022-11-07T19:03:04.898Z,8.90
2022-11-07T19:05:36.096Z,11.25
2022-11-07T19:08:06.591Z,9.75
2022-11-07T19:10:33.363Z,6.75
2022-11-07T19:13:04.054Z,8.68
2022-11-07T19:15:39.551Z,6.45
2022-11-07T19:18:06.029Z,5.90
2022-11-07T19:20:32.546Z,7.43
2022-11-07T19:22:59.113Z,10.55
2022-11-07T19:25:25.575Z,9.00
2022-11-07T19:27:52.100Z,5.85
2022-11-07T19:30:18.626Z,6.45
2022-11-07T19:32:45.719Z,9.02
2022-11-07T19:35:12.252Z,5.68
2022-11-07T19:37:38.774Z,5.55
2022-11-07T19:40:06.378Z,5.32
2022-11-07T19:42:32.856Z,6.78
2022-11-07T19:44:59.424Z,6.72
2022-11-07T19:47:26.079Z,6.28
2022-11-07T19:49:52.586Z,9.07
2022-11-07T19:52:19.075Z,5.93
2022-11-07T19:54:45.844Z,5.28
2022-11-07T19:57:12.368Z,4.63
2022-11-07T19:59:38.825Z,5.28
2022-11-07T20:02:36.332Z,5.90
2022-11-07T20:04:53.524Z,5.30
2022-11-07T20:07:20.006Z,5.35
2022-11-07T20:09:46.461Z,6.07
2022-11-07T20:12:12.943Z,5.55
2022-11-07T20:14:39.402Z,5.03
2022-11-07T20:17:05.915Z,6.95
2022-11-07T20:19:33.884Z,5.97
2022-11-07T20:22:01.059Z,7.90
2022-11-07T20:24:27.856Z,5.43
2022-11-07T20:26:54.399Z,4.95
2022-11-07T20:29:22.852Z,6.20
2022-11-07T20:31:49.649Z,7.30
2022-11-07T20:34:17.835Z,9.70
2022-11-07T20:36:44.466Z,7.57
2022-11-07T20:39:11.808Z,7.97
2022-11-07T20:41:38.695Z,8.70
2022-11-07T20:44:06.272Z,21.00
2022-11-07T20:46:34.606Z,22.27
2022-11-07T20:49:01.648Z,25.95
2022-11-07T20:51:28.126Z,29.02
2022-11-07T20:53:54.731Z,26.88
2022-11-07T20:56:22.159Z,37.15
2022-11-07T20:58:48.726Z,35.63
2022-11-07T21:01:23.398Z,36.05
2022-11-07T21:03:50.088Z,32.78
2022-11-07T21:06:16.860Z,32.65
2022-11-07T21:08:44.730Z,29.67
2022-11-07T21:11:11.486Z,25.05
2022-11-07T21:13:38.423Z,26.88
2022-11-07T21:16:05.446Z,23.58
2022-11-07T21:18:32.149Z,23.85
2022-11-07T21:21:12.455Z,24.45
2022-11-07T21:23:38.967Z,23.23
2022-11-07T21:26:07.099Z,22.33
2022-11-07T21:28:33.650Z,18.90
2022-11-07T21:31:04.378Z,17.95
2022-11-07T21:33:31.006Z,20.08
2022-11-07T21:35:57.481Z,16.85
2022-11-07T21:38:24.101Z,15.73
2022-11-07T21:40:50.563Z,16.35
2022-11-07T21:43:17.266Z,18.85
2022-11-07T21:45:43.921Z,16.60
2022-11-07T21:48:10.455Z,17.02
2022-11-07T21:50:44.989Z,15.52
2022-11-07T21:53:12.059Z,17.48
2022-11-07T21:55:38.598Z,16.40
2022-11-07T21:58:05.228Z,17.52
2022-11-07T22:00:35.834Z,16.08
2022-11-07T22:03:02.895Z,17.58
2022-11-07T22:05:29.362Z,15.93
2022-11-07T22:07:55.811Z,14.45
2022-11-07T22:10:22.279Z,16.45
2022-11-07T22:12:50.573Z,15.43
2022-11-07T22:15:17.110Z,13.23
2022-11-07T22:17:43.576Z,17.50
2022-11-07T22:20:10.689Z,13.48
2022-11-07T22:22:37.772Z,13.18
2022-11-07T22:25:04.797Z,12.10
2022-11-07T22:27:31.268Z,13.52
2022-11-07T22:29:57.878Z,12.00
2022-11-07T22:32:24.393Z,12.73
2022-11-07T22:34:50.853Z,14.30
2022-11-07T22:37:17.309Z,13.15
2022-11-07T22:39:43.774Z,13.45
2022-11-07T22:42:10.230Z,13.75
2022-11-07T22:44:37.027Z,11.75
2022-11-07T22:47:03.699Z,13.30
2022-11-07T22:49:30.204Z,12.02
2022-11-07T22:51:56.712Z,12.32
2022-11-07T22:54:23.180Z,10.85
2022-11-07T22:56:49.641Z,12.15
2022-11-07T22:59:16.094Z,11.95
2022-11-07T23:01:42.729Z,11.75
2022-11-07T23:04:13.047Z,13.48
2022-11-07T23:06:39.514Z,9.77
2022-11-07T23:09:07.001Z,12.23
2022-11-07T23:11:50.314Z,10.25
2022-11-07T23:14:18.451Z,9.50
2022-11-07T23:16:49.244Z,9.85
2022-11-07T23:19:16.992Z,11.30
2022-11-07T23:21:43.564Z,10.13
2022-11-07T23:24:10.097Z,10.00
2022-11-07T23:26:36.614Z,8.02
2022-11-07T23:29:10.413Z,8.10
2022-11-07T23:31:41.315Z,10.48
2022-11-07T23:34:07.955Z,9.25
2022-11-07T23:36:34.463Z,9.32
2022-11-07T23:39:07.420Z,9.52
2022-11-07T23:41:34.116Z,8.88
2022-11-07T23:44:00.606Z,7.72
2022-11-07T23:46:45.365Z,9.10
2022-11-07T23:49:30.434Z,5.57
2022-11-07T23:51:56.970Z,7.88
2022-11-07T23:54:41.939Z,7.28
2022-11-07T23:57:08.406Z,7.47
2022-11-07T23:59:53.999Z,7.18
